createdAt,value
2019-05-29T00:00:35.432Z,9.56
2019-05-29T00:03:08.298Z,9.50
2019-05-29T00:05:40.981Z,9.51
2019-05-29T00:08:14.684Z,9.51
2019-05-29T00:10:47.152Z,9.47
2019-05-29T00:13:19.743Z,9.42
2019-05-29T00:15:52.191Z,9.38
2019-05-29T00:18:25.648Z,9.37
2019-05-29T00:20:58.643Z,9.34
2019-05-29T00:23:30.974Z,9.34
2019-05-29T00:26:03.348Z,9.38
2019-05-29T00:28:35.811Z,9.35
2019-05-29T00:31:07.893Z,9.29
2019-05-29T00:33:40.856Z,9.24
2019-05-29T00:36:14.310Z,9.25
2019-05-29T00:38:46.826Z,9.26
2019-05-29T00:41:19.604Z,9.25
2019-05-29T00:43:52.317Z,9.22
2019-05-29T00:46:24.972Z,9.20
2019-05-29T00:48:57.581Z,9.19
2019-05-29T00:51:30.343Z,9.18
2019-05-29T00:54:02.857Z,9.16
2019-05-29T00:56:35.512Z,9.15
2019-05-29T00:59:08.969Z,9.13
2019-05-29T01:01:42.850Z,9.04
2019-05-29T01:04:15.754Z,9.01
2019-05-29T01:06:48.351Z,9.01
2019-05-29T01:09:20.851Z,8.99
2019-05-29T01:11:53.159Z,9.03
2019-05-29T01:14:25.924Z,9.02
2019-05-29T01:16:58.264Z,9.03
2019-05-29T01:19:30.611Z,8.99
2019-05-29T01:22:03.304Z,9.04
2019-05-29T01:24:35.745Z,9.00
2019-05-29T01:27:08.853Z,9.01
2019-05-29T01:29:39.632Z,9.03
2019-05-29T01:32:11.856Z,9.01
2019-05-29T01:34:44.591Z,9.02
2019-05-29T01:37:18.134Z,8.99
2019-05-29T01:39:51.115Z,8.97
2019-05-29T01:42:25.133Z,8.89
2019-05-29T01:45:07.575Z,8.90
2019-05-29T01:47:32.376Z,8.89
2019-05-29T01:50:05.336Z,8.86
2019-05-29T01:52:38.006Z,8.86
2019-05-29T01:55:11.044Z,8.89
2019-05-29T01:57:43.217Z,8.89
2019-05-29T02:00:17.711Z,8.86
2019-05-29T02:02:50.861Z,8.91
2019-05-29T02:05:24.006Z,8.82
2019-05-29T02:07:56.990Z,8.86
2019-05-29T02:10:29.100Z,8.87
2019-05-29T02:13:01.275Z,8.90
2019-05-29T02:15:34.220Z,9.01
2019-05-29T02:18:06.818Z,9.04
2019-05-29T02:20:39.156Z,9.09
2019-05-29T02:23:11.239Z,9.09
2019-05-29T02:25:44.118Z,9.11
2019-05-29T02:28:16.697Z,9.15
2019-05-29T02:30:50.421Z,9.22
2019-05-29T02:33:26.326Z,9.22
2019-05-29T02:35:59.569Z,9.25
2019-05-29T02:38:31.996Z,9.29
2019-05-29T02:41:04.060Z,9.28
2019-05-29T02:43:37.326Z,9.35
2019-05-29T02:46:09.658Z,9.40
2019-05-29T02:48:42.234Z,9.37
2019-05-29T02:51:14.905Z,9.36
2019-05-29T02:53:47.903Z,9.44
2019-05-29T02:56:20.691Z,9.46
2019-05-29T02:58:51.925Z,9.49
2019-05-29T03:01:25.401Z,9.50
2019-05-29T03:03:58.733Z,9.51
2019-05-29T03:06:32.312Z,9.52
2019-05-29T03:09:06.664Z,9.59
2019-05-29T03:11:39.077Z,9.58
2019-05-29T03:14:10.890Z,9.63
2019-05-29T03:16:43.565Z,9.62
2019-05-29T03:19:15.957Z,9.64
2019-05-29T03:21:48.372Z,9.61
2019-05-29T03:24:20.486Z,9.61
2019-05-29T03:26:53.533Z,9.62
2019-05-29T03:29:27.989Z,9.65
2019-05-29T03:32:00.553Z,9.65
2019-05-29T03:34:39.274Z,9.67
2019-05-29T03:37:08.401Z,9.64
2019-05-29T03:39:40.463Z,9.65
2019-05-29T03:42:12.515Z,9.68
2019-05-29T03:44:44.900Z,9.75
2019-05-29T03:47:17.255Z,9.77
2019-05-29T03:49:49.652Z,9.69
2019-05-29T03:52:22.355Z,9.74
2019-05-29T03:54:54.668Z,9.71
2019-05-29T03:57:27.677Z,9.77
2019-05-29T04:00:01.542Z,9.76
2019-05-29T04:02:35.263Z,9.74
2019-05-29T04:05:08.735Z,9.75
2019-05-29T04:07:41.750Z,9.73
2019-05-29T04:10:16.552Z,9.69
2019-05-29T04:12:49.373Z,9.75
2019-05-29T04:15:21.625Z,9.73
2019-05-29T04:17:57.302Z,9.76
2019-05-29T04:20:31.523Z,9.81
2019-05-29T04:23:07.243Z,9.81
2019-05-29T04:25:42.761Z,9.77
2019-05-29T04:28:14.686Z,9.76
2019-05-29T04:30:47.440Z,9.79
2019-05-29T04:33:20.006Z,9.96
2019-05-29T04:35:52.462Z,9.95
2019-05-29T04:38:24.813Z,9.97
2019-05-29T04:40:57.252Z,9.96
2019-05-29T04:43:31.090Z,9.90
2019-05-29T04:46:03.967Z,9.87
2019-05-29T04:48:38.372Z,9.93
2019-05-29T04:51:11.997Z,9.88
2019-05-29T04:53:43.575Z,9.87
2019-05-29T04:56:15.955Z,10.00
2019-05-29T04:58:48.908Z,10.03
2019-05-29T05:01:21.374Z,10.15
2019-05-29T05:03:53.812Z,10.25
2019-05-29T05:06:26.592Z,10.33
2019-05-29T05:08:58.955Z,10.44
2019-05-29T05:11:31.981Z,10.58
2019-05-29T05:14:04.460Z,10.52
2019-05-29T05:16:37.901Z,10.40
2019-05-29T05:19:10.510Z,10.45
2019-05-29T05:21:43.252Z,10.50
2019-05-29T05:24:15.760Z,10.71
2019-05-29T05:26:48.451Z,10.76
2019-05-29T05:29:20.954Z,10.75
2019-05-29T05:31:54.007Z,10.78
2019-05-29T05:34:24.931Z,10.95
2019-05-29T05:36:57.021Z,10.97
2019-05-29T05:39:30.714Z,11.12
2019-05-29T05:42:03.391Z,11.06
2019-05-29T05:44:36.963Z,11.13
2019-05-29T05:47:10.154Z,11.26
2019-05-29T05:49:42.535Z,11.29
2019-05-29T05:52:15.512Z,11.31
2019-05-29T05:54:48.759Z,11.75
2019-05-29T05:57:21.380Z,12.02
2019-05-29T05:59:54.429Z,11.92
2019-05-29T06:02:25.199Z,12.13
2019-05-29T06:04:56.895Z,12.08
2019-05-29T06:07:30.072Z,12.04
2019-05-29T06:10:02.634Z,11.68
2019-05-29T06:12:36.557Z,11.97
2019-05-29T06:15:09.596Z,12.23
2019-05-29T06:17:57.096Z,12.04
2019-05-29T06:20:17.082Z,11.97
2019-05-29T06:22:49.671Z,11.91
2019-05-29T06:25:22.349Z,12.07
2019-05-29T06:27:55.170Z,12.12
2019-05-29T06:30:27.984Z,12.09
2019-05-29T06:33:00.381Z,12.10
2019-05-29T06:35:34.210Z,12.12
2019-05-29T06:38:07.125Z,12.24
2019-05-29T06:40:44.051Z,12.33
2019-05-29T06:43:24.466Z,12.45
2019-05-29T06:45:57.771Z,12.10
2019-05-29T06:48:58.330Z,12.26
2019-05-29T06:51:02.263Z,12.48
2019-05-29T06:53:35.529Z,12.64
2019-05-29T06:56:08.417Z,12.48
2019-05-29T06:58:42.266Z,12.71
2019-05-29T07:01:15.010Z,12.74
2019-05-29T07:03:48.213Z,12.72
2019-05-29T07:06:21.045Z,12.47
2019-05-29T07:08:53.996Z,12.53
2019-05-29T07:11:26.561Z,12.44
2019-05-29T07:13:59.419Z,12.31
2019-05-29T07:16:44.076Z,12.83
2019-05-29T07:19:25.222Z,12.83
2019-05-29T07:21:40.939Z,13.08
2019-05-29T07:24:13.469Z,13.15
2019-05-29T07:26:45.815Z,13.22
2019-05-29T07:29:18.562Z,13.58
2019-05-29T07:31:50.981Z,13.51
2019-05-29T07:34:23.694Z,13.78
2019-05-29T07:36:56.391Z,14.09
2019-05-29T07:39:28.611Z,14.04
2019-05-29T07:42:01.280Z,14.07
2019-05-29T07:44:34.375Z,13.86
2019-05-29T07:47:05.238Z,13.97
2019-05-29T07:49:40.863Z,13.82
2019-05-29T07:52:11.998Z,13.84
2019-05-29T07:54:45.767Z,13.98
2019-05-29T07:57:18.781Z,14.05
2019-05-29T07:59:51.146Z,13.95
2019-05-29T08:02:23.756Z,14.04
2019-05-29T08:04:55.820Z,14.17
2019-05-29T08:07:27.667Z,14.32
2019-05-29T08:09:59.739Z,14.02
2019-05-29T08:12:32.935Z,14.17
2019-05-29T08:15:07.049Z,14.81
2019-05-29T08:17:40.217Z,14.66
2019-05-29T08:20:12.779Z,14.81
2019-05-29T08:22:46.388Z,14.88
2019-05-29T08:25:19.312Z,14.82
2019-05-29T08:27:51.386Z,15.19
2019-05-29T08:30:23.920Z,14.92
2019-05-29T08:32:56.592Z,14.86
2019-05-29T08:35:29.071Z,14.53
2019-05-29T08:38:01.185Z,14.67
2019-05-29T08:40:34.024Z,14.49
2019-05-29T08:43:07.169Z,14.70
2019-05-29T08:45:39.755Z,14.66
2019-05-29T08:48:12.190Z,14.35
2019-05-29T08:50:45.692Z,14.41
2019-05-29T08:53:19.046Z,14.58
2019-05-29T08:55:50.815Z,14.25
2019-05-29T08:58:23.158Z,13.89
2019-05-29T09:00:55.917Z,14.00
2019-05-29T09:03:27.954Z,13.88
2019-05-29T09:06:08.551Z,13.98
2019-05-29T09:08:35.322Z,14.06
2019-05-29T09:11:09.427Z,14.19
2019-05-29T09:13:41.926Z,14.15
2019-05-29T09:16:14.623Z,14.24
2019-05-29T09:18:47.391Z,14.45
2019-05-29T09:21:20.649Z,14.49
2019-05-29T09:23:53.817Z,14.69
2019-05-29T09:26:26.175Z,14.60
2019-05-29T09:28:58.751Z,14.32
2019-05-29T09:31:31.769Z,14.31
2019-05-29T09:34:02.548Z,14.50
2019-05-29T09:36:34.962Z,14.40
2019-05-29T09:39:10.107Z,14.33
2019-05-29T09:41:43.177Z,14.48
2019-05-29T09:44:32.967Z,14.64
2019-05-29T09:46:50.273Z,14.60
2019-05-29T09:49:23.937Z,14.69
2019-05-29T09:51:56.547Z,14.72
2019-05-29T09:54:28.787Z,14.97
2019-05-29T09:57:02.830Z,14.87
2019-05-29T09:59:35.817Z,15.08
2019-05-29T10:02:09.513Z,14.90
2019-05-29T10:04:43.592Z,15.03
2019-05-29T10:07:15.980Z,15.18
2019-05-29T10:09:49.047Z,15.54
2019-05-29T10:12:22.131Z,15.45
2019-05-29T10:14:55.702Z,15.41
2019-05-29T10:17:28.250Z,15.58
2019-05-29T10:20:00.795Z,16.05
2019-05-29T10:22:33.293Z,16.13
2019-05-29T10:25:06.444Z,16.04
2019-05-29T10:27:40.702Z,15.83
2019-05-29T10:30:14.619Z,15.48
2019-05-29T10:32:48.064Z,15.31
2019-05-29T10:35:20.622Z,15.51
2019-05-29T10:37:53.275Z,15.88
2019-05-29T10:40:26.195Z,15.41
2019-05-29T10:42:57.260Z,15.86
2019-05-29T10:45:29.319Z,15.62
2019-05-29T10:48:01.312Z,15.73
2019-05-29T10:50:33.448Z,15.84
2019-05-29T10:53:06.146Z,15.65
2019-05-29T10:55:39.212Z,15.66
2019-05-29T10:58:11.943Z,15.57
2019-05-29T11:00:45.408Z,15.94
2019-05-29T11:03:18.653Z,16.02
2019-05-29T11:05:51.611Z,15.63
2019-05-29T11:08:24.177Z,15.80
2019-05-29T11:10:56.428Z,16.26
2019-05-29T11:13:28.941Z,15.53
2019-05-29T11:16:01.848Z,16.22
2019-05-29T11:18:33.655Z,16.22
2019-05-29T11:21:06.533Z,16.46
2019-05-29T11:23:39.103Z,16.46
2019-05-29T11:26:11.415Z,16.60
2019-05-29T11:28:43.704Z,16.60
2019-05-29T11:31:16.230Z,16.18
2019-05-29T11:33:49.034Z,16.51
2019-05-29T11:36:21.305Z,17.03
2019-05-29T11:38:54.548Z,16.56
2019-05-29T11:41:27.187Z,17.12
2019-05-29T11:44:00.266Z,16.93
2019-05-29T11:46:33.005Z,17.30
2019-05-29T11:49:05.981Z,17.80
2019-05-29T11:51:37.970Z,17.61
2019-05-29T11:54:10.046Z,18.59
2019-05-29T11:56:43.317Z,18.59
2019-05-29T11:59:15.459Z,18.69
2019-05-29T12:01:50.632Z,19.15
2019-05-29T12:04:26.228Z,19.45
2019-05-29T12:06:55.600Z,19.08
2019-05-29T12:09:32.879Z,19.10
2019-05-29T12:12:02.144Z,19.43
2019-05-29T12:14:57.665Z,19.45
2019-05-29T12:17:08.969Z,19.52
2019-05-29T12:19:41.382Z,19.59
2019-05-29T12:22:13.815Z,19.85
2019-05-29T12:24:46.195Z,19.90
2019-05-29T12:27:18.636Z,19.60
2019-05-29T12:29:50.944Z,20.14
2019-05-29T12:32:24.104Z,22.26
2019-05-29T12:34:58.246Z,22.23
2019-05-29T12:37:30.950Z,21.71
2019-05-29T12:40:03.800Z,20.45
2019-05-29T12:42:37.024Z,20.71
2019-05-29T12:45:10.985Z,19.92
2019-05-29T12:47:43.205Z,19.54
2019-05-29T12:50:17.570Z,19.25
2019-05-29T12:52:50.821Z,19.39
2019-05-29T12:55:22.613Z,19.57
2019-05-29T12:57:55.904Z,19.18
2019-05-29T13:00:28.770Z,19.65
2019-05-29T13:03:01.072Z,19.83
2019-05-29T13:05:33.915Z,19.83
2019-05-29T13:08:06.572Z,19.79
2019-05-29T13:10:38.941Z,19.64
2019-05-29T13:13:11.614Z,19.23
2019-05-29T13:15:44.021Z,19.45
2019-05-29T13:18:16.453Z,19.11
2019-05-29T13:20:48.830Z,18.87
2019-05-29T13:23:21.774Z,18.61
2019-05-29T13:25:55.338Z,18.80
2019-05-29T13:28:27.404Z,18.86
2019-05-29T13:31:01.661Z,18.87
2019-05-29T13:33:34.613Z,18.95
2019-05-29T13:36:06.943Z,19.04
2019-05-29T13:38:39.795Z,19.43
2019-05-29T13:41:12.335Z,20.15
2019-05-29T13:43:44.372Z,21.49
2019-05-29T13:46:16.501Z,21.59
2019-05-29T13:48:49.368Z,20.32
2019-05-29T13:51:22.238Z,19.36
2019-05-29T13:54:03.755Z,19.08
2019-05-29T13:56:28.842Z,19.01
2019-05-29T13:59:00.022Z,18.49
2019-05-29T14:01:32.400Z,18.49
2019-05-29T14:04:05.143Z,18.29
2019-05-29T14:06:36.582Z,17.99
2019-05-29T14:09:10.067Z,17.82
2019-05-29T14:11:43.432Z,17.53
2019-05-29T14:14:15.848Z,17.49
2019-05-29T14:16:48.870Z,17.68
2019-05-29T14:19:21.119Z,17.69
2019-05-29T14:21:53.875Z,17.33
2019-05-29T14:24:29.457Z,17.42
2019-05-29T14:26:58.878Z,17.39
2019-05-29T14:29:31.620Z,17.43
2019-05-29T14:32:03.020Z,17.36
2019-05-29T14:34:35.192Z,17.03
2019-05-29T14:37:07.998Z,16.94
2019-05-29T14:39:40.761Z,17.32
2019-05-29T14:42:12.802Z,17.06
2019-05-29T14:44:44.949Z,16.81
2019-05-29T14:47:17.022Z,16.60
2019-05-29T14:49:49.114Z,16.95
2019-05-29T14:52:21.510Z,16.69
2019-05-29T14:54:54.195Z,16.97
2019-05-29T14:57:26.525Z,17.27
2019-05-29T14:59:58.838Z,17.37
2019-05-29T15:02:30.900Z,17.12
2019-05-29T15:05:03.847Z,16.92
2019-05-29T15:07:37.167Z,17.31
2019-05-29T15:10:24.056Z,17.11
2019-05-29T15:12:45.135Z,16.91
2019-05-29T15:15:17.836Z,16.74
2019-05-29T15:17:50.615Z,16.51
2019-05-29T15:20:23.106Z,16.49
2019-05-29T15:22:56.238Z,16.92
2019-05-29T15:25:28.791Z,16.73
2019-05-29T15:28:01.190Z,16.60
2019-05-29T15:30:33.673Z,16.54
2019-05-29T15:33:06.384Z,16.51
2019-05-29T15:35:38.688Z,16.61
2019-05-29T15:38:12.741Z,16.76
2019-05-29T15:40:45.181Z,16.82
2019-05-29T15:43:17.873Z,16.90
2019-05-29T15:45:50.616Z,16.84
2019-05-29T15:48:22.948Z,16.61
2019-05-29T15:50:55.742Z,16.64
2019-05-29T15:53:28.154Z,16.77
2019-05-29T15:56:16.925Z,17.12
2019-05-29T15:58:35.359Z,17.08
2019-05-29T16:01:09.635Z,17.22
2019-05-29T16:03:42.165Z,17.44
2019-05-29T16:06:15.768Z,17.31
2019-05-29T16:08:48.430Z,17.72
2019-05-29T16:11:25.184Z,18.19
2019-05-29T16:13:55.662Z,18.15
2019-05-29T16:16:27.728Z,18.64
2019-05-29T16:19:00.589Z,19.04
2019-05-29T16:21:32.913Z,18.95
2019-05-29T16:26:36.257Z,19.86
2019-05-29T16:29:10.333Z,20.96
2019-05-29T16:31:42.812Z,21.57
2019-05-29T16:34:18.417Z,21.53
2019-05-29T16:36:49.317Z,21.55
2019-05-29T16:39:22.742Z,22.08
2019-05-29T16:41:54.890Z,23.59
2019-05-29T16:44:29.605Z,23.12
2019-05-29T16:47:01.843Z,23.25
2019-05-29T16:49:32.954Z,23.59
2019-05-29T16:52:05.108Z,23.84
2019-05-29T16:54:37.573Z,22.46
2019-05-29T16:57:10.009Z,22.60
2019-05-29T16:59:42.214Z,22.50
2019-05-29T17:02:15.604Z,23.28
2019-05-29T17:04:48.502Z,22.54
2019-05-29T17:07:20.298Z,22.62
2019-05-29T17:09:52.940Z,21.95
2019-05-29T17:12:24.726Z,22.08
2019-05-29T17:14:57.779Z,21.75
2019-05-29T17:17:30.792Z,21.46
2019-05-29T17:20:03.577Z,21.13
2019-05-29T17:22:36.265Z,20.08
2019-05-29T17:25:11.279Z,19.86
2019-05-29T17:27:43.541Z,19.54
2019-05-29T17:30:21.038Z,18.92
2019-05-29T17:32:53.399Z,19.00
2019-05-29T17:35:26.478Z,18.89
2019-05-29T17:37:58.895Z,18.59
2019-05-29T17:40:30.011Z,19.04
2019-05-29T17:43:02.115Z,18.73
2019-05-29T17:45:34.222Z,18.59
2019-05-29T17:48:07.442Z,18.43
2019-05-29T17:50:39.909Z,18.02
2019-05-29T17:53:11.318Z,17.55
2019-05-29T17:55:46.703Z,17.41
2019-05-29T17:58:18.785Z,17.11
2019-05-29T18:00:52.401Z,17.40
2019-05-29T18:03:24.722Z,17.10
2019-05-29T18:05:56.847Z,16.90
2019-05-29T18:08:29.925Z,16.53
2019-05-29T18:11:02.513Z,16.55
2019-05-29T18:13:33.581Z,16.19
2019-05-29T18:16:05.859Z,16.19
2019-05-29T18:18:37.852Z,16.09
2019-05-29T18:21:10.697Z,15.78
2019-05-29T18:23:43.580Z,15.48
2019-05-29T18:26:14.767Z,15.70
2019-05-29T18:28:47.199Z,15.61
2019-05-29T18:31:20.330Z,15.43
2019-05-29T18:33:53.722Z,15.12
2019-05-29T18:36:27.471Z,15.07
2019-05-29T18:39:00.471Z,14.65
2019-05-29T18:41:32.866Z,14.59
2019-05-29T18:44:05.273Z,14.40
2019-05-29T18:46:38.298Z,14.25
2019-05-29T18:49:14.513Z,14.15
2019-05-29T18:51:45.758Z,14.31
2019-05-29T18:54:18.493Z,14.06
2019-05-29T18:57:13.957Z,14.17
2019-05-29T18:59:25.634Z,14.11
2019-05-29T19:01:58.590Z,13.86
2019-05-29T19:04:29.927Z,13.90
2019-05-29T19:07:02.078Z,13.72
2019-05-29T19:09:34.871Z,13.50
2019-05-29T19:12:06.966Z,13.49
2019-05-29T19:14:39.511Z,13.53
2019-05-29T19:17:12.291Z,13.33
2019-05-29T19:19:43.080Z,13.22
2019-05-29T19:22:15.494Z,12.98
2019-05-29T19:24:48.305Z,13.01
2019-05-29T19:27:31.290Z,12.80
2019-05-29T19:29:55.531Z,12.67
2019-05-29T19:32:29.343Z,12.60
2019-05-29T19:35:02.544Z,12.37
2019-05-29T19:37:35.966Z,12.22
2019-05-29T19:40:10.210Z,12.13
2019-05-29T19:42:43.267Z,11.97
2019-05-29T19:45:17.802Z,11.89
2019-05-29T19:47:50.437Z,11.76
2019-05-29T19:50:23.144Z,11.74
2019-05-29T19:52:55.829Z,11.66
2019-05-29T19:55:31.745Z,11.49
2019-05-29T19:58:03.116Z,11.38
2019-05-29T20:00:36.304Z,11.17
2019-05-29T20:03:09.042Z,11.12
2019-05-29T20:05:41.477Z,11.09
2019-05-29T20:08:14.703Z,11.10
2019-05-29T20:10:47.709Z,11.18
2019-05-29T20:13:20.407Z,10.88
2019-05-29T20:15:52.811Z,10.82
2019-05-29T20:18:25.274Z,10.76
2019-05-29T20:20:57.587Z,10.46
2019-05-29T20:23:30.563Z,10.46
2019-05-29T20:26:02.904Z,10.42
2019-05-29T20:28:36.339Z,10.37
2019-05-29T20:31:11.877Z,10.28
2019-05-29T20:33:43.803Z,10.18
2019-05-29T20:36:16.402Z,10.11
2019-05-29T20:38:48.860Z,10.09
2019-05-29T20:41:21.596Z,10.05
2019-05-29T20:43:54.286Z,9.87
2019-05-29T20:46:26.599Z,9.79
2019-05-29T20:48:59.280Z,9.83
2019-05-29T20:51:32.760Z,9.81
2019-05-29T20:54:06.220Z,9.64
2019-05-29T20:56:39.871Z,9.59
2019-05-29T20:59:13.217Z,9.67
2019-05-29T21:01:47.361Z,9.58
2019-05-29T21:04:18.642Z,9.49
2019-05-29T21:06:51.413Z,9.46
2019-05-29T21:09:23.501Z,9.23
2019-05-29T21:11:56.457Z,9.13
2019-05-29T21:14:29.211Z,9.20
2019-05-29T21:17:01.996Z,9.15
2019-05-29T21:19:36.348Z,9.08
2019-05-29T21:22:09.368Z,9.04
2019-05-29T21:24:46.326Z,8.91
2019-05-29T21:27:16.424Z,8.86
2019-05-29T21:29:49.154Z,8.75
2019-05-29T21:32:21.603Z,8.76
2019-05-29T21:34:53.864Z,8.56
2019-05-29T21:37:26.529Z,8.42
2019-05-29T21:39:59.409Z,8.35
2019-05-29T21:42:33.140Z,8.24
2019-05-29T21:45:06.998Z,8.23
2019-05-29T21:47:40.963Z,8.07
2019-05-29T21:50:14.054Z,8.02
2019-05-29T21:52:47.569Z,8.05
2019-05-29T21:55:21.143Z,8.03
2019-05-29T21:57:52.890Z,8.04
2019-05-29T22:00:33.241Z,7.94
2019-05-29T22:03:07.204Z,7.93
2019-05-29T22:05:40.647Z,7.78
2019-05-29T22:08:11.454Z,7.69
2019-05-29T22:10:43.472Z,7.63
2019-05-29T22:13:16.298Z,7.65
2019-05-29T22:15:48.624Z,7.60
2019-05-29T22:18:21.463Z,7.67
2019-05-29T22:20:57.048Z,7.54
2019-05-29T22:23:29.175Z,7.45
2019-05-29T22:26:01.649Z,7.36
2019-05-29T22:28:34.224Z,7.34
2019-05-29T22:31:07.270Z,7.25
2019-05-29T22:33:40.186Z,7.20
2019-05-29T22:36:11.765Z,7.26
2019-05-29T22:38:43.787Z,7.31
2019-05-29T22:41:16.742Z,7.36
2019-05-29T22:43:49.921Z,7.05
2019-05-29T22:46:22.014Z,7.13
2019-05-29T22:48:55.764Z,7.15
2019-05-29T22:51:29.203Z,7.19
2019-05-29T22:54:02.069Z,7.08
2019-05-29T22:56:34.449Z,6.92
2019-05-29T22:59:06.692Z,7.01
2019-05-29T23:01:39.357Z,6.76
2019-05-29T23:04:11.414Z,6.85
2019-05-29T23:06:44.020Z,6.71
2019-05-29T23:09:17.233Z,6.60
2019-05-29T23:11:50.124Z,6.76
2019-05-29T23:14:22.492Z,6.91
2019-05-29T23:16:54.805Z,6.75
2019-05-29T23:19:27.113Z,6.83
2019-05-29T23:22:01.150Z,6.80
2019-05-29T23:24:34.334Z,6.52
2019-05-29T23:27:07.272Z,6.31
2019-05-29T23:29:48.527Z,6.39
2019-05-29T23:32:14.109Z,6.24
2019-05-29T23:34:46.746Z,6.44
2019-05-29T23:37:19.147Z,6.46
2019-05-29T23:39:51.213Z,6.28
2019-05-29T23:42:23.564Z,6.05
2019-05-29T23:44:57.621Z,6.03
2019-05-29T23:47:30.990Z,6.08
2019-05-29T23:50:04.449Z,6.14
2019-05-29T23:52:37.618Z,6.01
2019-05-29T23:55:11.385Z,5.86
2019-05-29T23:57:43.741Z,5.88
